SCVA weather

Viñamar Airport
Casablanca, Valparaíso Region, Chile

Public forecast

Using degrees Celsius for public forecast. Weather courtesy of forecast.io.

Closest aviation weather report (METAR) to Viñamar Airport

Report is more than 6 hours old.

Closest report is El Alba Airport, 18.4 nm (34.1 km) S. Retrieved 2013/01/26 20:00 UTC (7 years ago):

SCAB 262000Z 21013KT CAVOK 25/15 Q1011

Closest aviation forecast (TAF) to Viñamar Airport

Closest forecast is Viña del mar Airport, 25.2 nm (46.8 km) NNW. Retrieved 2020/05/26 06:03 UTC (4 hours ago):

TAF SCVM 260411Z 2606/2706 29004KT 2000 BR OVC008 TX22/2618Z TN10/2611Z TEMPO 2608/2614 0200 FG BKN002 OVC006 BECMG 2615/2617 30006KT 5000 HZ SCT008 BKN012 BECMG 2618/2620 SCT015 BECMG 2701/2703 10004KT FEW012 BKN015